createdAt,value
2023-01-25T00:02:42.678Z,21.15
2023-01-25T00:05:22.713Z,21.60
2023-01-25T00:08:01.670Z,22.60
2023-01-25T00:10:48.555Z,23.52
2023-01-25T00:16:18.169Z,22.02
2023-01-25T00:18:55.963Z,22.75
2023-01-25T00:21:44.708Z,23.08
2023-01-25T00:24:16.008Z,24.35
2023-01-25T00:27:14.173Z,23.20
2023-01-25T00:30:00.442Z,24.33
2023-01-25T00:33:31.384Z,25.08
2023-01-25T00:36:58.536Z,24.33
2023-01-25T00:39:45.280Z,23.60
2023-01-25T00:42:36.012Z,26.02
2023-01-25T00:45:19.394Z,23.92
2023-01-25T00:48:03.565Z,23.98
2023-01-25T00:56:57.019Z,27.15
2023-01-25T00:59:33.394Z,27.50
2023-01-25T01:02:45.255Z,27.45
2023-01-25T01:05:21.160Z,25.73
2023-01-25T01:08:05.023Z,26.13
2023-01-25T01:10:43.334Z,25.75
2023-01-25T01:13:39.044Z,27.73
2023-01-25T01:16:14.262Z,27.52
2023-01-25T01:18:59.687Z,28.23
2023-01-25T01:21:39.311Z,29.40
2023-01-25T01:24:27.615Z,26.67
2023-01-25T01:27:01.473Z,27.50
2023-01-25T01:29:49.858Z,28.23
2023-01-25T01:32:23.276Z,27.75
2023-01-25T01:37:43.173Z,26.42
2023-01-25T01:40:40.583Z,26.95
2023-01-25T01:43:23.824Z,25.05
2023-01-25T01:46:03.123Z,25.77
2023-01-25T01:49:12.340Z,27.50
2023-01-25T01:51:59.375Z,27.00
2023-01-25T01:58:02.830Z,26.77
2023-01-25T02:00:46.542Z,26.70
2023-01-25T02:03:44.009Z,26.02
2023-01-25T02:07:09.574Z,26.80
2023-01-25T02:09:41.100Z,26.73
2023-01-25T02:12:51.674Z,25.20
2023-01-25T02:15:20.319Z,27.08
2023-01-25T02:18:23.854Z,25.85
2023-01-25T02:21:01.767Z,28.35
2023-01-25T02:23:59.600Z,29.13
2023-01-25T02:26:50.248Z,26.95
2023-01-25T02:29:44.219Z,26.23
2023-01-25T02:32:23.712Z,28.55
2023-01-25T02:38:24.930Z,26.45
2023-01-25T02:41:15.987Z,27.95
2023-01-25T02:44:01.542Z,27.23
2023-01-25T02:46:49.166Z,29.92
2023-01-25T02:49:47.850Z,27.42
2023-01-25T02:55:40.521Z,26.73
2023-01-25T02:58:54.481Z,27.15
2023-01-25T03:01:39.462Z,25.77
2023-01-25T03:07:01.657Z,31.48
2023-01-25T03:10:04.419Z,27.55
2023-01-25T03:12:44.244Z,28.17
2023-01-25T03:15:19.563Z,28.77
2023-01-25T03:17:56.768Z,28.45
2023-01-25T03:20:50.962Z,30.35
2023-01-25T03:23:25.068Z,30.00
2023-01-25T03:26:24.535Z,29.83
2023-01-25T03:29:25.006Z,28.83
2023-01-25T03:32:05.323Z,31.00
2023-01-25T03:34:39.239Z,28.13
2023-01-25T03:37:35.404Z,30.33
2023-01-25T03:40:12.138Z,32.55
2023-01-25T03:42:52.745Z,30.75
2023-01-25T03:45:27.321Z,32.40
2023-01-25T03:47:59.372Z,29.27
2023-01-25T03:50:47.340Z,30.83
2023-01-25T03:53:36.179Z,30.40
2023-01-25T03:56:20.049Z,34.15
2023-01-25T03:59:11.031Z,30.02
2023-01-25T04:01:54.821Z,31.98
2023-01-25T04:04:41.195Z,30.20
2023-01-25T04:07:16.917Z,30.90
2023-01-25T04:09:45.732Z,31.88
2023-01-25T04:12:24.921Z,30.50
2023-01-25T04:14:58.476Z,30.60
2023-01-25T04:17:30.846Z,29.80
2023-01-25T04:20:20.299Z,30.67
2023-01-25T04:22:48.920Z,29.80
2023-01-25T04:25:29.635Z,29.40
2023-01-25T04:28:02.049Z,30.70
2023-01-25T04:30:49.173Z,30.58
2023-01-25T04:33:34.411Z,30.55
2023-01-25T04:36:21.986Z,31.73
2023-01-25T04:39:01.662Z,31.60
2023-01-25T04:41:46.024Z,31.08
2023-01-25T04:44:15.339Z,29.85
2023-01-25T04:46:59.526Z,30.13
2023-01-25T04:49:45.445Z,30.42
2023-01-25T04:52:18.898Z,32.72
2023-01-25T04:55:04.375Z,31.35
2023-01-25T04:57:44.770Z,31.20
2023-01-25T05:00:33.221Z,29.70
2023-01-25T05:03:09.455Z,31.63
2023-01-25T05:05:45.711Z,34.22
2023-01-25T05:08:27.330Z,33.45
2023-01-25T05:11:15.898Z,31.77
2023-01-25T05:14:07.572Z,34.22
2023-01-25T05:16:43.842Z,33.03
2023-01-25T05:22:15.640Z,29.95
2023-01-25T05:24:54.665Z,30.25
2023-01-25T05:27:35.045Z,32.83
2023-01-25T05:30:37.903Z,31.08
2023-01-25T05:33:35.537Z,31.77
2023-01-25T05:36:11.880Z,33.35
2023-01-25T05:38:40.420Z,31.05
2023-01-25T05:41:23.638Z,32.22
2023-01-25T05:44:06.229Z,31.08
2023-01-25T05:46:52.071Z,30.73
2023-01-25T05:49:44.450Z,31.45
2023-01-25T05:52:50.673Z,30.42
2023-01-25T05:55:47.508Z,30.67
2023-01-25T05:58:26.581Z,33.38
2023-01-25T06:01:15.503Z,35.47
2023-01-25T06:04:06.564Z,32.17
2023-01-25T06:06:46.626Z,31.20
2023-01-25T06:09:33.241Z,30.80
2023-01-25T06:12:06.295Z,34.03
2023-01-25T06:14:41.705Z,32.80
2023-01-25T06:17:18.972Z,35.63
2023-01-25T06:20:14.199Z,35.08
2023-01-25T06:23:05.268Z,34.15
2023-01-25T06:25:46.991Z,33.38
2023-01-25T06:28:23.647Z,35.47
2023-01-25T06:31:14.836Z,35.45
2023-01-25T06:34:08.726Z,34.42
2023-01-25T06:37:03.701Z,37.35
2023-01-25T06:39:42.260Z,34.63
2023-01-25T06:42:20.735Z,35.28
2023-01-25T06:45:25.690Z,36.63
2023-01-25T06:51:22.688Z,34.15
2023-01-25T06:53:59.754Z,34.10
2023-01-25T06:56:31.954Z,33.67
2023-01-25T06:59:09.617Z,35.85
2023-01-25T07:01:41.893Z,34.35
2023-01-25T07:07:57.125Z,33.37
2023-01-25T07:10:52.107Z,36.58
2023-01-25T07:13:36.755Z,36.90
2023-01-25T07:16:36.310Z,37.92
2023-01-25T07:22:22.356Z,36.63
2023-01-25T07:25:07.127Z,36.80
2023-01-25T07:27:59.010Z,36.40
2023-01-25T07:30:27.356Z,38.20
2023-01-25T07:33:14.593Z,38.13
2023-01-25T07:35:55.891Z,41.05
2023-01-25T07:38:44.875Z,41.15
2023-01-25T07:41:26.098Z,39.63
2023-01-25T07:44:14.544Z,40.45
2023-01-25T07:46:59.043Z,42.55
2023-01-25T07:49:30.293Z,40.50
2023-01-25T07:52:16.134Z,42.42
2023-01-25T07:54:59.691Z,40.85
2023-01-25T07:57:47.939Z,40.78
2023-01-25T08:00:20.139Z,42.80
2023-01-25T08:02:57.585Z,41.22
2023-01-25T08:05:31.750Z,35.60
2023-01-25T08:08:10.342Z,37.35
2023-01-25T08:13:41.682Z,42.47
2023-01-25T08:16:25.547Z,41.20
2023-01-25T08:22:53.482Z,34.10
2023-01-25T08:25:37.184Z,34.50
2023-01-25T08:28:08.775Z,32.63
2023-01-25T08:31:10.109Z,34.75
2023-01-25T08:33:43.477Z,36.28
2023-01-25T08:36:11.731Z,33.47
2023-01-25T08:39:18.515Z,36.95
2023-01-25T08:41:58.030Z,30.42
2023-01-25T08:44:35.225Z,27.55
2023-01-25T08:47:19.410Z,26.90
2023-01-25T08:49:52.461Z,27.67
2023-01-25T08:52:38.340Z,31.83
2023-01-25T08:57:51.615Z,35.15
2023-01-25T09:00:30.361Z,33.15
2023-01-25T09:03:12.762Z,34.75
2023-01-25T09:05:45.521Z,34.10
2023-01-25T09:08:20.043Z,37.83
2023-01-25T09:10:51.149Z,33.58
2023-01-25T09:13:19.546Z,34.85
2023-01-25T09:15:48.294Z,36.20
2023-01-25T09:21:27.283Z,32.00
2023-01-25T09:24:12.149Z,28.88
2023-01-25T09:26:59.427Z,30.17
2023-01-25T09:29:49.598Z,33.40
2023-01-25T09:33:24.425Z,34.45
2023-01-25T09:35:59.604Z,30.88
2023-01-25T09:38:28.113Z,32.00
2023-01-25T09:41:36.016Z,32.85
2023-01-25T09:44:30.490Z,29.17
2023-01-25T09:47:24.892Z,35.40
2023-01-25T09:50:01.623Z,32.67
2023-01-25T09:53:06.824Z,32.70
2023-01-25T09:55:35.314Z,31.13
2023-01-25T09:58:14.330Z,30.20
2023-01-25T10:01:21.660Z,34.13
2023-01-25T10:04:13.075Z,32.90
2023-01-25T10:06:59.795Z,30.55
2023-01-25T10:09:54.272Z,30.23
2023-01-25T10:12:26.509Z,33.00
2023-01-25T10:15:00.292Z,31.05
2023-01-25T10:21:21.805Z,27.75
2023-01-25T10:24:22.878Z,30.50
2023-01-25T10:27:17.570Z,28.63
2023-01-25T10:29:52.936Z,25.80
2023-01-25T10:32:35.872Z,27.88
2023-01-25T10:35:35.402Z,24.58
2023-01-25T10:38:18.028Z,27.95
2023-01-25T10:40:55.112Z,27.27
2023-01-25T10:43:38.032Z,26.17
2023-01-25T10:46:33.850Z,27.10
2023-01-25T10:49:38.729Z,25.60
2023-01-25T10:52:24.555Z,22.63
2023-01-25T10:55:28.670Z,24.00
2023-01-25T11:00:49.255Z,25.70
2023-01-25T11:03:44.064Z,23.67
2023-01-25T11:06:16.244Z,24.52
2023-01-25T11:08:54.530Z,23.08
2023-01-25T11:11:43.567Z,22.98
2023-01-25T11:14:30.553Z,20.08
2023-01-25T11:17:02.852Z,18.23
2023-01-25T11:19:41.235Z,19.23
2023-01-25T11:22:25.560Z,17.67
2023-01-25T11:25:33.190Z,19.45
2023-01-25T11:28:25.733Z,19.08
2023-01-25T11:31:05.275Z,18.85
2023-01-25T11:33:55.846Z,17.60
2023-01-25T11:37:12.365Z,15.15
2023-01-25T11:39:59.625Z,15.52
2023-01-25T11:42:56.007Z,14.77
2023-01-25T11:45:50.917Z,12.82
2023-01-25T11:48:48.393Z,13.43
2023-01-25T11:51:51.830Z,12.55
2023-01-25T11:54:54.769Z,12.32
2023-01-25T11:58:02.560Z,10.75
2023-01-25T12:01:00.170Z,10.13
2023-01-25T12:03:42.574Z,10.75
2023-01-25T12:06:37.984Z,12.82
2023-01-25T12:09:31.409Z,12.73
2023-01-25T12:12:35.547Z,13.52
2023-01-25T12:15:15.605Z,12.30
2023-01-25T12:18:11.523Z,11.38
2023-01-25T12:20:57.976Z,9.80
2023-01-25T12:24:03.150Z,10.43
2023-01-25T12:27:07.637Z,10.90
2023-01-25T12:29:44.828Z,10.02
2023-01-25T12:32:40.711Z,9.60
2023-01-25T12:35:35.999Z,7.63
2023-01-25T12:38:12.327Z,9.02
2023-01-25T12:40:43.071Z,9.35
2023-01-25T12:45:46.095Z,12.10
2023-01-25T12:48:53.557Z,9.23
2023-01-25T12:51:27.258Z,8.02
2023-01-25T12:53:59.178Z,8.18
2023-01-25T12:56:45.221Z,7.35
2023-01-25T12:59:39.396Z,6.70
2023-01-25T13:02:48.515Z,7.20
2023-01-25T13:05:33.969Z,10.75
2023-01-25T13:08:32.481Z,13.32
2023-01-25T13:11:10.250Z,14.32
2023-01-25T13:13:40.063Z,17.30
2023-01-25T13:16:29.902Z,17.07
2023-01-25T13:18:58.793Z,20.13
2023-01-25T13:21:46.443Z,20.52
2023-01-25T13:24:18.978Z,22.80
2023-01-25T13:26:49.728Z,22.40
2023-01-25T13:29:41.202Z,23.08
2023-01-25T13:32:49.821Z,24.30
2023-01-25T13:35:33.870Z,22.25
2023-01-25T13:38:09.485Z,20.55
2023-01-25T13:40:40.732Z,18.83
2023-01-25T13:43:12.086Z,17.45
2023-01-25T13:45:41.144Z,17.85
2023-01-25T13:48:16.689Z,16.88
2023-01-25T13:51:09.347Z,17.95
2023-01-25T13:53:44.830Z,19.33
2023-01-25T13:56:31.701Z,18.90
2023-01-25T13:59:01.761Z,18.27
2023-01-25T14:01:32.292Z,17.83
2023-01-25T14:04:04.626Z,18.23
2023-01-25T14:06:39.569Z,17.48
2023-01-25T14:09:22.790Z,21.33
2023-01-25T14:11:59.388Z,19.02
2023-01-25T14:14:28.894Z,20.10
2023-01-25T14:17:14.221Z,17.70
2023-01-25T14:20:08.825Z,18.08
2023-01-25T14:22:36.839Z,17.98
2023-01-25T14:25:21.500Z,20.02
2023-01-25T14:27:54.828Z,22.75
2023-01-25T14:30:34.467Z,21.73
2023-01-25T14:33:22.237Z,24.05
2023-01-25T14:35:57.424Z,23.77
2023-01-25T14:38:42.645Z,22.23
2023-01-25T14:42:00.852Z,23.83
2023-01-25T14:44:34.291Z,24.15
2023-01-25T14:47:29.144Z,26.30
2023-01-25T14:50:32.446Z,25.58
2023-01-25T14:53:20.683Z,26.23
2023-01-25T14:55:50.253Z,25.33
2023-01-25T14:58:23.916Z,25.05
2023-01-25T15:00:54.755Z,23.60
2023-01-25T15:03:23.251Z,25.45
2023-01-25T15:05:51.910Z,25.17
2023-01-25T15:08:31.174Z,25.40
2023-01-25T15:11:20.359Z,21.67
2023-01-25T15:13:48.148Z,20.85
2023-01-25T15:16:16.771Z,21.40
2023-01-25T15:18:52.042Z,19.00
2023-01-25T15:21:21.447Z,20.20
2023-01-25T15:23:51.490Z,19.52
2023-01-25T15:26:25.487Z,19.80
2023-01-25T15:28:56.342Z,19.70
2023-01-25T15:31:35.031Z,18.58
2023-01-25T15:34:03.342Z,19.00
2023-01-25T15:36:36.530Z,18.58
2023-01-25T15:39:05.007Z,17.98
2023-01-25T15:41:32.743Z,18.67
2023-01-25T15:44:05.753Z,18.42
2023-01-25T15:46:39.363Z,18.00
2023-01-25T15:49:26.833Z,19.05
2023-01-25T15:52:27.019Z,16.95
2023-01-25T15:55:01.812Z,17.75
2023-01-25T15:57:34.737Z,17.15
2023-01-25T16:00:04.265Z,17.80
2023-01-25T16:02:37.454Z,16.47
2023-01-25T16:05:13.678Z,20.63
2023-01-25T16:07:44.151Z,16.35
2023-01-25T16:10:47.327Z,18.88
2023-01-25T16:13:47.309Z,18.60
2023-01-25T16:17:03.125Z,19.67
2023-01-25T16:19:50.995Z,18.30
2023-01-25T16:23:33.004Z,18.55
2023-01-25T16:27:10.292Z,19.35
2023-01-25T16:30:04.782Z,20.40
2023-01-25T16:33:14.953Z,20.35
2023-01-25T16:36:10.877Z,18.95
2023-01-25T16:39:39.767Z,21.10
2023-01-25T16:42:26.267Z,22.05
2023-01-25T16:45:41.231Z,20.50
2023-01-25T16:48:32.204Z,21.20
2023-01-25T16:51:00.219Z,21.08
2023-01-25T16:53:27.988Z,22.42
2023-01-25T16:55:55.704Z,21.67
2023-01-25T16:58:30.058Z,22.45
2023-01-25T17:00:58.886Z,22.13
2023-01-25T17:03:59.181Z,24.98
2023-01-25T17:06:30.188Z,22.48
2023-01-25T17:09:24.964Z,23.40
2023-01-25T17:25:40.600Z,22.25
2023-01-25T17:28:08.563Z,22.40
2023-01-25T17:30:40.810Z,24.75
2023-01-25T17:33:18.451Z,21.02
2023-01-25T17:36:18.757Z,23.55
2023-01-25T17:39:04.190Z,24.10
2023-01-25T17:41:55.008Z,25.20
2023-01-25T17:44:27.068Z,24.33
2023-01-25T17:47:19.338Z,24.42
2023-01-25T17:50:02.628Z,25.88
2023-01-25T17:52:51.415Z,24.40
2023-01-25T17:58:54.817Z,25.00
2023-01-25T18:01:28.589Z,25.70
2023-01-25T18:03:57.097Z,27.45
2023-01-25T18:06:31.923Z,25.08
2023-01-25T18:09:06.893Z,24.80
2023-01-25T18:11:44.145Z,26.67
2023-01-25T18:14:19.111Z,27.25
2023-01-25T18:16:56.181Z,24.35
2023-01-25T18:19:23.906Z,27.20
2023-01-25T18:22:00.150Z,25.42
2023-01-25T18:24:35.972Z,28.23
2023-01-25T18:27:20.814Z,27.13
2023-01-25T18:29:58.329Z,25.95
2023-01-25T18:32:35.410Z,27.90
2023-01-25T18:37:53.451Z,27.10
2023-01-25T18:45:36.815Z,24.13
2023-01-25T18:48:43.577Z,24.40
2023-01-25T18:51:19.971Z,26.90
2023-01-25T18:53:51.855Z,27.17
2023-01-25T18:56:21.547Z,29.05
2023-01-25T18:58:52.512Z,30.15
2023-01-25T19:01:23.557Z,28.70
2023-01-25T19:03:55.255Z,28.30
2023-01-25T19:06:32.050Z,29.92
2023-01-25T19:09:00.377Z,28.13
2023-01-25T19:11:34.456Z,28.80
2023-01-25T19:14:02.759Z,31.02
2023-01-25T19:16:31.360Z,27.65
2023-01-25T19:19:42.450Z,28.20
2023-01-25T19:22:33.228Z,26.23
2023-01-25T19:25:14.218Z,29.48
2023-01-25T19:28:20.784Z,26.77
2023-01-25T19:30:52.118Z,26.60
2023-01-25T19:33:28.703Z,25.75
2023-01-25T19:36:05.574Z,27.83
2023-01-25T19:38:37.850Z,25.58
2023-01-25T19:41:14.132Z,27.88
2023-01-25T19:43:51.534Z,30.70
2023-01-25T19:46:28.501Z,29.20
2023-01-25T19:49:10.598Z,36.95
2023-01-25T19:51:53.544Z,33.80
2023-01-25T19:54:23.126Z,27.25
2023-01-25T19:57:03.716Z,27.65
2023-01-25T20:02:37.368Z,25.98
2023-01-25T20:05:11.416Z,29.17
2023-01-25T20:07:41.056Z,27.92
2023-01-25T20:10:11.082Z,28.10
2023-01-25T20:12:39.031Z,26.90
2023-01-25T20:15:07.942Z,26.85
2023-01-25T20:17:36.920Z,26.42
2023-01-25T20:20:05.550Z,25.90
2023-01-25T20:22:36.476Z,26.38
2023-01-25T20:25:17.480Z,25.50
2023-01-25T20:27:55.206Z,24.38
2023-01-25T20:30:34.249Z,27.65
2023-01-25T20:33:20.952Z,26.60
2023-01-25T20:35:50.243Z,28.48
2023-01-25T20:38:19.683Z,26.60
2023-01-25T20:40:58.294Z,28.10
2023-01-25T20:43:32.002Z,26.65
2023-01-25T20:46:19.163Z,26.02
2023-01-25T20:48:58.453Z,28.00
2023-01-25T20:52:14.168Z,29.10
2023-01-25T20:54:47.401Z,27.98
2023-01-25T20:57:18.067Z,30.35
2023-01-25T21:02:19.375Z,30.67
2023-01-25T21:04:56.050Z,27.80
2023-01-25T21:07:24.550Z,29.35
2023-01-25T21:10:00.573Z,27.50
2023-01-25T21:12:33.052Z,28.70
2023-01-25T21:15:30.400Z,27.33
2023-01-25T21:22:43.753Z,30.77
2023-01-25T21:25:20.097Z,28.25
2023-01-25T21:27:50.231Z,30.08
2023-01-25T21:30:26.071Z,32.95
2023-01-25T21:32:59.135Z,28.88
2023-01-25T21:35:34.052Z,29.67
2023-01-25T21:38:12.924Z,29.20
2023-01-25T21:40:46.266Z,30.15
2023-01-25T21:43:26.334Z,33.13
2023-01-25T21:46:12.611Z,29.30
2023-01-25T21:48:59.321Z,29.52
2023-01-25T21:51:36.049Z,29.27
2023-01-25T21:54:05.479Z,28.77
2023-01-25T21:56:39.506Z,31.20
2023-01-25T21:59:09.144Z,31.20
2023-01-25T22:08:20.607Z,34.00
2023-01-25T22:11:52.458Z,33.15
2023-01-25T22:15:08.571Z,30.40
2023-01-25T22:17:48.500Z,31.13
2023-01-25T22:20:28.752Z,29.63
2023-01-25T22:23:02.298Z,29.83
2023-01-25T22:25:41.907Z,27.38
2023-01-25T22:28:27.259Z,23.05
2023-01-25T22:31:24.847Z,21.10
2023-01-25T22:34:04.913Z,21.30
2023-01-25T22:36:39.031Z,17.52
2023-01-25T22:39:06.907Z,19.88
2023-01-25T22:41:43.625Z,19.08
2023-01-25T22:44:12.025Z,19.00
2023-01-25T22:46:39.723Z,17.52
2023-01-25T22:49:10.071Z,18.45
2023-01-25T22:51:43.912Z,20.35
2023-01-25T22:54:11.630Z,18.13
2023-01-25T22:56:45.377Z,16.30
2023-01-25T22:59:18.629Z,15.93
2023-01-25T23:01:46.619Z,14.65
2023-01-25T23:04:14.588Z,15.75
2023-01-25T23:06:42.472Z,11.63
2023-01-25T23:09:10.410Z,11.10
2023-01-25T23:11:38.616Z,10.77
2023-01-25T23:14:27.954Z,10.43
2023-01-25T23:17:23.402Z,9.95
2023-01-25T23:19:51.029Z,9.43
2023-01-25T23:22:18.741Z,8.65
2023-01-25T23:24:46.410Z,8.93
2023-01-25T23:27:14.141Z,8.30
2023-01-25T23:29:43.905Z,8.68
2023-01-25T23:32:29.970Z,7.75
2023-01-25T23:34:57.984Z,7.07
2023-01-25T23:37:38.132Z,6.15
2023-01-25T23:40:11.923Z,6.45
2023-01-25T23:42:40.249Z,5.97
2023-01-25T23:45:11.498Z,5.35
2023-01-25T23:47:39.326Z,6.18
2023-01-25T23:50:09.729Z,6.20
2023-01-25T23:55:06.146Z,5.00
2023-01-25T23:57:34.350Z,4.55
